createdAt,value
2022-07-28T00:17:17.198Z,1.4
2022-07-28T00:47:34.231Z,1.1
2022-07-28T01:17:51.124Z,0.9
2022-07-28T01:48:09.255Z,1.2
2022-07-28T02:18:30.207Z,1.4
2022-07-28T02:48:48.409Z,1.4
2022-07-28T03:19:05.966Z,1
2022-07-28T03:49:22.406Z,0.9
2022-07-28T04:19:40.968Z,1.4
2022-07-28T04:49:58.433Z,1.5
2022-07-28T05:20:16.347Z,1.6
2022-07-28T05:50:35.032Z,1.4
2022-07-28T06:20:56.021Z,1.4
2022-07-28T06:51:19.257Z,1.5
2022-07-28T07:21:38.753Z,2.1
2022-07-28T07:52:03.461Z,2.6
2022-07-28T08:22:28.947Z,1.7
2022-07-28T08:52:49.134Z,2
2022-07-28T09:23:43.342Z,1.9
2022-07-28T09:53:35.765Z,2.1
2022-07-28T10:23:47.447Z,2.3
2022-07-28T10:54:24.861Z,2
2022-07-28T11:24:41.947Z,2.1
2022-07-28T12:25:13.305Z,1.5
2022-07-28T12:55:34.303Z,2.3
2022-07-28T13:25:41.715Z,1.8
2022-07-28T14:58:58.186Z,2.9
2022-07-28T15:29:18.868Z,2.6
2022-07-28T15:59:48.854Z,2.2
2022-07-28T16:29:55.104Z,2.4
2022-07-28T17:00:13.645Z,2.4
2022-07-28T17:30:31.083Z,2.4
2022-07-28T18:00:48.361Z,2.4
2022-07-28T18:31:04.789Z,2
2022-07-28T19:01:21.339Z,3
2022-07-28T19:31:36.663Z,2
2022-07-28T20:01:54.220Z,2.2
2022-07-28T20:32:12.819Z,2.1
2022-07-28T21:02:30.320Z,1.9
2022-07-28T21:32:47.889Z,2.1
2022-07-28T22:03:05.371Z,2.5
2022-07-28T22:33:23.810Z,2.2
2022-07-28T23:03:42.350Z,2
2022-07-28T23:34:02.166Z,2.8
